Time,TemperatureF,DewpointF,PressureIn,WindDirection,WindDirectionDegrees,WindSpeedMPH,WindSpeedGustMPH,Humidity,HourlyPrecipIn,Conditions,Clouds,dailyrainin,SoftwareType,DateUTC
2013-06-19 00:01:00,40.0,25.0,-100.00,NW,315,6.0,7.0,55,0.00,,,-99.99,,2013-06-19 06:01:00,
2013-06-19 00:33:00,36.0,24.0,-100.00,NW,310,6.0,7.0,60,0.00,,,-99.99,,2013-06-19 06:33:00,
2013-06-19 00:42:00,35.0,25.0,-100.00,WNW,300,7.0,10.0,65,0.00,,,-99.99,,2013-06-19 06:42:00,
2013-06-19 00:52:00,37.0,25.0,-100.00,NW,305,5.0,8.0,61,0.00,,,-99.99,,2013-06-19 06:52:00,
2013-06-19 01:01:00,34.0,23.0,-100.00,WNW,290,3.0,6.0,63,0.00,,,-99.99,,2013-06-19 07:01:00,
2013-06-19 01:11:00,33.0,24.0,-100.00,NW,305,4.0,7.0,67,0.00,,,-99.99,,2013-06-19 07:11:00,
2013-06-19 01:33:00,32.0,24.0,-100.00,NW,305,6.0,7.0,69,0.00,,,-99.99,,2013-06-19 07:33:00,
2013-06-19 01:43:00,33.0,24.0,-100.00,WNW,300,4.0,7.0,69,0.00,,,-99.99,,2013-06-19 07:43:00,
2013-06-19 01:53:00,31.0,23.0,-100.00,West,280,6.0,6.0,71,0.00,,,-99.99,,2013-06-19 07:53:00,
2013-06-19 02:02:00,31.0,24.0,-100.00,NNW,335,6.0,7.0,74,0.00,,,-99.99,,2013-06-19 08:02:00,
2013-06-19 02:11:00,31.0,24.0,-100.00,WNW,295,6.0,8.0,74,0.00,,,-99.99,,2013-06-19 08:11:00,
2013-06-19 02:33:00,31.0,24.0,-100.00,NW,315,6.0,6.0,76,0.00,,,-99.99,,2013-06-19 08:33:00,
2013-06-19 02:43:00,33.0,26.0,-100.00,WNW,295,6.0,7.0,75,0.00,,,-99.99,,2013-06-19 08:43:00,
2013-06-19 02:53:00,33.0,25.0,-100.00,NW,305,6.0,6.0,73,0.00,,,-99.99,,2013-06-19 08:53:00,
2013-06-19 03:02:00,32.0,25.0,-100.00,NW,310,7.0,8.0,74,0.00,,,-99.99,,2013-06-19 09:02:00,
2013-06-19 03:11:00,31.0,24.0,-100.00,NW,325,4.0,8.0,75,0.00,,,-99.99,,2013-06-19 09:11:00,
2013-06-19 03:34:00,32.0,26.0,-100.00,NW,325,7.0,8.0,77,0.00,,,-99.99,,2013-06-19 09:34:00,
2013-06-19 03:43:00,33.0,27.0,-100.00,WNW,300,4.0,9.0,77,0.00,,,-99.99,,2013-06-19 09:43:00,
2013-06-19 03:53:00,34.0,27.0,-100.00,NW,305,6.0,7.0,76,0.00,,,-99.99,,2013-06-19 09:53:00,
2013-06-19 04:02:00,33.0,27.0,-100.00,NW,310,4.0,7.0,76,0.00,,,-99.99,,2013-06-19 10:02:00,
2013-06-19 04:11:00,34.0,27.0,-100.00,West,270,2.0,4.0,76,0.00,,,-99.99,,2013-06-19 10:11:00,
2013-06-19 04:22:00,34.0,27.0,-100.00,West,270,2.0,4.0,76,0.00,,,-99.99,,2013-06-19 10:22:00,
2013-06-19 04:33:00,31.0,25.0,-100.00,WNW,300,4.0,6.0,79,0.00,,,-99.99,,2013-06-19 10:33:00,
2013-06-19 04:42:00,30.0,25.0,-100.00,West,260,4.0,6.0,79,0.00,,,-99.99,,2013-06-19 10:42:00,
2013-06-19 04:52:00,30.0,25.0,-100.00,NW,325,6.0,9.0,80,0.00,,,-99.99,,2013-06-19 10:52:00,
2013-06-19 05:02:00,31.0,26.0,-100.00,NW,310,7.0,9.0,81,0.00,,,-99.99,,2013-06-19 11:02:00,
2013-06-19 05:11:00,31.0,26.0,-100.00,NW,310,8.0,9.0,81,0.00,,,-99.99,,2013-06-19 11:11:00,
2013-06-19 05:33:00,33.0,27.0,-100.00,West,280,2.0,6.0,78,0.00,,,-99.99,,2013-06-19 11:33:00,
2013-06-19 05:42:00,32.0,26.0,-100.00,NW,320,6.0,9.0,78,0.00,,,-99.99,,2013-06-19 11:42:00,
2013-06-19 05:54:00,31.0,26.0,-100.00,NW,305,4.0,5.0,79,0.00,,,-99.99,,2013-06-19 11:54:00,
2013-06-19 06:01:00,29.0,24.0,-100.00,NW,320,6.0,7.0,80,0.00,,,-99.99,,2013-06-19 12:01:00,
2013-06-19 06:12:00,29.0,24.0,-100.00,NW,320,4.0,7.0,81,0.00,,,-99.99,,2013-06-19 12:12:00,
2013-06-19 06:34:00,30.0,26.0,-100.00,WNW,290,4.0,6.0,83,0.00,,,-99.99,,2013-06-19 12:34:00,
2013-06-19 06:44:00,33.0,28.0,-100.00,WNW,285,4.0,6.0,82,0.00,,,-99.99,,2013-06-19 12:44:00,
2013-06-19 06:52:00,35.0,30.0,-100.00,West,265,6.0,7.0,81,0.00,,,-99.99,,2013-06-19 12:52:00,
2013-06-19 07:02:00,38.0,32.0,-100.00,WNW,285,4.0,6.0,78,0.00,,,-99.99,,2013-06-19 13:02:00,
2013-06-19 07:12:00,40.0,32.0,-100.00,WSW,245,4.0,6.0,73,0.00,,,-99.99,,2013-06-19 13:12:00,
2013-06-19 07:22:00,40.0,32.0,-100.00,WSW,245,4.0,6.0,73,0.00,,,-99.99,,2013-06-19 13:22:00,
2013-06-19 07:33:00,47.0,33.0,-100.00,North,350,2.0,3.0,58,0.00,,,-99.99,,2013-06-19 13:33:00,
2013-06-19 07:42:00,49.0,32.0,-100.00,NNE,20,2.0,4.0,50,0.00,,,-99.99,,2013-06-19 13:42:00,
2013-06-19 07:53:00,51.0,31.0,-100.00,North,10,1.0,3.0,45,0.00,,,-99.99,,2013-06-19 13:53:00,
2013-06-19 08:02:00,53.0,30.0,-100.00,SE,135,1.0,2.0,41,0.00,,,-99.99,,2013-06-19 14:02:00,
2013-06-19 08:11:00,53.0,30.0,-100.00,ENE,60,1.0,4.0,40,0.00,,,-99.99,,2013-06-19 14:11:00,
2013-06-19 08:33:00,54.0,31.0,-100.00,ENE,60,2.0,4.0,41,0.00,,,-99.99,,2013-06-19 14:33:00,
2013-06-19 08:43:00,53.0,31.0,-100.00,SE,125,3.0,6.0,42,0.00,,,-99.99,,2013-06-19 14:43:00,
2013-06-19 08:52:00,54.0,31.0,-100.00,ENE,65,3.0,5.0,42,0.00,,,-99.99,,2013-06-19 14:52:00,
2013-06-19 09:01:00,54.0,31.0,-100.00,East,95,3.0,6.0,42,0.00,,,-99.99,,2013-06-19 15:01:00,
2013-06-19 09:11:00,54.0,32.0,-100.00,East,95,3.0,6.0,42,0.00,,,-99.99,,2013-06-19 15:11:00,
2013-06-19 09:22:00,54.0,32.0,-100.00,East,95,3.0,6.0,42,0.00,,,-99.99,,2013-06-19 15:22:00,
2013-06-19 09:33:00,56.0,32.0,-100.00,ESE,110,2.0,6.0,38,0.00,,,-99.99,,2013-06-19 15:33:00,
2013-06-19 09:42:00,57.0,31.0,-100.00,SE,125,2.0,6.0,36,0.00,,,-99.99,,2013-06-19 15:42:00,
2013-06-19 09:53:00,58.0,29.0,-100.00,South,190,4.0,9.0,33,0.00,,,-99.99,,2013-06-19 15:53:00,
2013-06-19 10:01:00,58.0,29.0,-100.00,ESE,120,4.0,9.0,33,0.00,,,-99.99,,2013-06-19 16:01:00,
2013-06-19 10:11:00,59.0,30.0,-100.00,ESE,115,4.0,9.0,33,0.00,,,-99.99,,2013-06-19 16:11:00,
2013-06-19 10:22:00,59.0,30.0,-100.00,ESE,115,4.0,9.0,33,0.00,,,-99.99,,2013-06-19 16:22:00,
2013-06-19 10:34:00,60.0,28.0,-100.00,South,190,7.0,10.0,29,0.00,,,-99.99,,2013-06-19 16:34:00,
2013-06-19 10:43:00,61.0,29.0,-100.00,SSW,200,3.0,11.0,29,0.00,,,-99.99,,2013-06-19 16:43:00,
2013-06-19 10:52:00,63.0,28.0,-100.00,South,185,6.0,12.0,26,0.00,,,-99.99,,2013-06-19 16:52:00,
2013-06-19 11:02:00,64.0,27.0,-100.00,SSW,195,9.0,14.0,24,0.00,,,-99.99,,2013-06-19 17:02:00,
2013-06-19 11:12:00,64.0,24.0,-100.00,South,180,9.0,17.0,21,0.00,,,-99.99,,2013-06-19 17:12:00,
2013-06-19 11:22:00,64.0,24.0,-100.00,South,180,9.0,17.0,21,0.00,,,-99.99,,2013-06-19 17:22:00,
2013-06-19 11:34:00,66.0,20.0,-100.00,SSE,160,11.0,17.0,17,0.00,,,-99.99,,2013-06-19 17:34:00,
2013-06-19 11:43:00,66.0,18.0,-100.00,South,170,10.0,17.0,15,0.00,,,-99.99,,2013-06-19 17:43:00,
2013-06-19 11:53:00,67.0,17.0,-100.00,SSE,150,13.0,18.0,14,0.00,,,-99.99,,2013-06-19 17:53:00,
2013-06-19 12:01:00,67.0,17.0,-100.00,SE,140,11.0,19.0,14,0.00,,,-99.99,,2013-06-19 18:01:00,
2013-06-19 12:11:00,68.0,17.0,-100.00,South,170,11.0,20.0,14,0.00,,,-99.99,,2013-06-19 18:11:00,
2013-06-19 12:24:00,68.0,17.0,-100.00,South,170,11.0,20.0,14,0.00,,,-99.99,,2013-06-19 18:24:00,
2013-06-19 12:33:00,69.0,18.0,-100.00,South,185,7.0,16.0,14,0.00,,,-99.99,,2013-06-19 18:33:00,
2013-06-19 12:44:00,70.0,18.0,-100.00,SSW,195,17.0,24.0,13,0.00,,,-99.99,,2013-06-19 18:44:00,
2013-06-19 12:53:00,69.0,14.0,-100.00,SSW,210,4.0,29.0,12,0.00,,,-99.99,,2013-06-19 18:53:00,
2013-06-19 13:01:00,70.0,13.0,-100.00,SW,235,10.0,24.0,10,0.00,,,-99.99,,2013-06-19 19:01:00,
2013-06-19 13:12:00,73.0,13.0,-100.00,South,170,19.0,27.0,9,0.00,,,-99.99,,2013-06-19 19:12:00,
2013-06-19 13:22:00,73.0,13.0,-100.00,South,170,19.0,27.0,9,0.00,,,-99.99,,2013-06-19 19:22:00,
2013-06-19 13:32:00,72.0,13.0,-100.00,WSW,250,14.0,32.0,10,0.00,,,-99.99,,2013-06-19 19:32:00,
2013-06-19 13:43:00,73.0,13.0,-100.00,South,190,19.0,26.0,10,0.00,,,-99.99,,2013-06-19 19:43:00,
2013-06-19 13:52:00,71.0,12.0,-100.00,SW,230,16.0,33.0,10,0.00,,,-99.99,,2013-06-19 19:52:00,
2013-06-19 14:02:00,72.0,13.0,-100.00,SW,230,12.0,24.0,9,0.00,,,-99.99,,2013-06-19 20:02:00,
2013-06-19 14:11:00,73.0,13.0,-100.00,WSW,255,20.0,30.0,10,0.00,,,-99.99,,2013-06-19 20:11:00,
2013-06-19 14:22:00,73.0,13.0,-100.00,WSW,255,20.0,30.0,10,0.00,,,-99.99,,2013-06-19 20:22:00,
2013-06-19 14:33:00,74.0,14.0,-100.00,SW,215,17.0,29.0,10,0.00,,,-99.99,,2013-06-19 20:33:00,
2013-06-19 14:42:00,73.0,13.0,-100.00,SW,215,17.0,30.0,10,0.00,,,-99.99,,2013-06-19 20:42:00,
2013-06-19 14:52:00,73.0,14.0,-100.00,SW,235,25.0,32.0,10,0.00,,,-99.99,,2013-06-19 20:52:00,
2013-06-19 15:02:00,74.0,14.0,-100.00,SW,220,17.0,35.0,9,0.00,,,-99.99,,2013-06-19 21:02:00,
2013-06-19 15:11:00,75.0,15.0,-100.00,SW,215,27.0,35.0,10,0.00,,,-99.99,,2013-06-19 21:11:00,
2013-06-19 15:22:00,75.0,15.0,-100.00,SW,215,27.0,35.0,10,0.00,,,-99.99,,2013-06-19 21:22:00,
2013-06-19 15:33:00,74.0,14.0,-100.00,SW,230,21.0,35.0,10,0.00,,,-99.99,,2013-06-19 21:33:00,
2013-06-19 15:44:00,74.0,14.0,-100.00,SW,235,23.0,38.0,10,0.00,,,-99.99,,2013-06-19 21:44:00,
2013-06-19 15:52:00,74.0,14.0,-100.00,SW,225,28.0,34.0,10,0.00,,,-99.99,,2013-06-19 21:52:00,
2013-06-19 16:01:00,74.0,14.0,-100.00,SW,235,12.0,30.0,10,0.00,,,-99.99,,2013-06-19 22:01:00,
2013-06-19 16:11:00,74.0,14.0,-100.00,SSW,210,23.0,35.0,10,0.00,,,-99.99,,2013-06-19 22:11:00,
2013-06-19 16:22:00,74.0,14.0,-100.00,SSW,210,23.0,35.0,10,0.00,,,-99.99,,2013-06-19 22:22:00,
2013-06-19 16:34:00,74.0,14.0,-100.00,SW,230,12.0,26.0,10,0.00,,,-99.99,,2013-06-19 22:34:00,
2013-06-19 16:43:00,74.0,14.0,-100.00,SSW,205,14.0,26.0,10,0.00,,,-99.99,,2013-06-19 22:43:00,
2013-06-19 16:53:00,75.0,15.0,-100.00,SW,225,16.0,24.0,10,0.00,,,-99.99,,2013-06-19 22:53:00,
2013-06-19 17:02:00,74.0,14.0,-100.00,WSW,245,13.0,29.0,10,0.00,,,-99.99,,2013-06-19 23:02:00,
2013-06-19 17:12:00,74.0,14.0,-100.00,West,275,17.0,30.0,10,0.00,,,-99.99,,2013-06-19 23:12:00,
2013-06-19 17:23:00,74.0,14.0,-100.00,West,275,17.0,30.0,10,0.00,,,-99.99,,2013-06-19 23:23:00,
2013-06-19 17:33:00,74.0,14.0,-100.00,WSW,250,15.0,27.0,9,0.00,,,-99.99,,2013-06-19 23:33:00,
2013-06-19 17:43:00,74.0,14.0,-100.00,West,260,14.0,29.0,10,0.00,,,-99.99,,2013-06-19 23:43:00,
2013-06-19 17:52:00,73.0,13.0,-100.00,West,265,17.0,27.0,10,0.00,,,-99.99,,2013-06-19 23:52:00,
2013-06-19 18:01:00,73.0,14.0,-100.00,SW,235,13.0,19.0,10,0.00,,,-99.99,,2013-06-20 00:01:00,
2013-06-19 18:12:00,73.0,13.0,-100.00,SW,215,13.0,18.0,10,0.00,,,-99.99,,2013-06-20 00:12:00,
2013-06-19 18:22:00,73.0,13.0,-100.00,SW,215,13.0,18.0,10,0.00,,,-99.99,,2013-06-20 00:22:00,
2013-06-19 18:33:00,73.0,13.0,-100.00,WNW,285,17.0,23.0,10,0.00,,,-99.99,,2013-06-20 00:33:00,
2013-06-19 18:44:00,72.0,12.0,-100.00,West,270,16.0,39.0,9,0.00,,,-99.99,,2013-06-20 00:44:00,
2013-06-19 18:52:00,71.0,12.0,-100.00,SW,225,19.0,24.0,10,0.00,,,-99.99,,2013-06-20 00:52:00,
2013-06-19 19:02:00,71.0,12.0,-100.00,WSW,250,13.0,22.0,9,0.00,,,-99.99,,2013-06-20 01:02:00,
2013-06-19 19:11:00,70.0,11.0,-100.00,WSW,250,14.0,23.0,10,0.00,,,-99.99,,2013-06-20 01:11:00,
2013-06-19 19:22:00,70.0,11.0,-100.00,WSW,250,14.0,23.0,10,0.00,,,-99.99,,2013-06-20 01:22:00,
2013-06-19 19:33:00,69.0,10.0,-100.00,West,260,12.0,22.0,10,0.00,,,-99.99,,2013-06-20 01:33:00,
2013-06-19 19:44:00,68.0,9.0,-100.00,WSW,250,14.0,19.0,10,0.00,,,-99.99,,2013-06-20 01:44:00,
2013-06-19 19:52:00,67.0,8.0,-100.00,WSW,255,14.0,20.0,10,0.00,,,-99.99,,2013-06-20 01:52:00,
2013-06-19 20:02:00,66.0,8.0,-100.00,WSW,255,12.0,18.0,10,0.00,,,-99.99,,2013-06-20 02:02:00,
2013-06-19 20:11:00,64.0,6.0,-100.00,West,260,11.0,15.0,10,0.00,,,-99.99,,2013-06-20 02:11:00,
2013-06-19 20:34:00,56.0,1.0,-100.00,West,265,13.0,16.0,10,0.00,,,-99.99,,2013-06-20 02:34:00,
2013-06-19 20:43:00,56.0,0.0,-100.00,West,275,14.0,17.0,10,0.00,,,-99.99,,2013-06-20 02:43:00,
2013-06-19 20:52:00,55.0,1.0,-100.00,West,280,16.0,18.0,11,0.00,,,-99.99,,2013-06-20 02:52:00,
2013-06-19 21:02:00,54.0,3.0,-100.00,West,270,17.0,18.0,12,0.00,,,-99.99,,2013-06-20 03:02:00,
2013-06-19 21:11:00,53.0,2.0,-100.00,West,270,15.0,17.0,12,0.00,,,-99.99,,2013-06-20 03:11:00,
2013-06-19 21:33:00,51.0,4.0,-100.00,West,270,14.0,16.0,14,0.00,,,-99.99,,2013-06-20 03:33:00,
2013-06-19 21:43:00,51.0,4.0,-100.00,West,265,13.0,17.0,14,0.00,,,-99.99,,2013-06-20 03:43:00,
2013-06-19 21:53:00,49.0,4.0,-100.00,West,270,14.0,16.0,15,0.00,,,-99.99,,2013-06-20 03:53:00,
2013-06-19 22:01:00,49.0,4.0,-100.00,West,260,11.0,14.0,16,0.00,,,-99.99,,2013-06-20 04:01:00,
2013-06-19 22:11:00,46.0,4.0,-100.00,West,275,12.0,14.0,17,0.00,,,-99.99,,2013-06-20 04:11:00,
2013-06-19 22:34:00,47.0,5.0,-100.00,West,260,10.0,14.0,17,0.00,,,-99.99,,2013-06-20 04:34:00,
2013-06-19 22:43:00,46.0,6.0,-100.00,West,265,12.0,14.0,18,0.00,,,-99.99,,2013-06-20 04:43:00,
2013-06-19 22:53:00,44.0,6.0,-100.00,NW,315,3.0,11.0,20,0.00,,,-99.99,,2013-06-20 04:53:00,
2013-06-19 23:02:00,44.0,6.0,-100.00,NW,325,4.0,8.0,19,0.00,,,-99.99,,2013-06-20 05:02:00,
2013-06-19 23:12:00,45.0,6.0,-100.00,NW,315,5.0,12.0,19,0.00,,,-99.99,,2013-06-20 05:12:00,
2013-06-19 23:21:00,45.0,6.0,-100.00,West,265,7.0,11.0,19,0.00,,,-99.99,,2013-06-20 05:21:00,
2013-06-19 23:33:00,47.0,7.0,-100.00,NW,305,2.0,4.0,19,0.00,,,-99.99,,2013-06-20 05:33:00,
2013-06-19 23:44:00,47.0,7.0,-100.00,West,280,7.0,10.0,19,0.00,,,-99.99,,2013-06-20 05:44:00,
2013-06-19 23:52:00,46.0,7.0,-100.00,West,260,7.0,12.0,19,0.00,,,-99.99,,2013-06-20 05:52:00,